createdAt,value
2019-01-25T00:14:14.522Z,93.70
2019-01-25T00:44:18.211Z,94.10
2019-01-25T01:14:21.786Z,93.90
2019-01-25T01:44:38.059Z,93.70
2019-01-25T02:14:41.619Z,93.40
2019-01-25T02:44:45.309Z,93.50
2019-01-25T03:14:48.765Z,92.40
2019-01-25T03:44:52.601Z,92.30
2019-01-25T04:14:56.599Z,92.10
2019-01-25T04:45:00.153Z,92.00
2019-01-25T05:15:03.965Z,91.30
2019-01-25T05:45:12.178Z,90.70
2019-01-25T06:15:15.669Z,91.10
2019-01-25T06:45:19.412Z,91.30
2019-01-25T07:15:24.668Z,92.30
2019-01-25T07:45:28.341Z,92.90
2019-01-25T08:15:31.832Z,92.70
2019-01-25T08:45:35.322Z,92.60
2019-01-25T09:15:38.814Z,92.40
2019-01-25T09:45:42.772Z,92.10
2019-01-25T10:15:46.264Z,89.80
2019-01-25T10:45:49.774Z,88.20
2019-01-25T11:15:53.573Z,89.40
2019-01-25T11:45:57.053Z,87.30
2019-01-25T12:16:00.546Z,82.50
2019-01-25T12:46:05.675Z,83.50
2019-01-25T13:16:09.168Z,85.90
2019-01-25T13:46:12.634Z,87.30
2019-01-25T14:16:16.339Z,90.90
2019-01-25T14:46:19.888Z,90.40
2019-01-25T15:16:23.387Z,90.90
2019-01-25T15:46:40.179Z,92.50
2019-01-25T16:16:43.666Z,93.40
2019-01-25T16:46:47.475Z,91.70
2019-01-25T17:16:50.938Z,91.90
2019-01-25T17:46:54.416Z,92.70
2019-01-25T18:16:57.910Z,92.10
2019-01-25T18:47:01.689Z,92.00
2019-01-25T19:17:05.676Z,92.30
2019-01-25T19:47:09.164Z,92.40
2019-01-25T20:17:12.815Z,92.80
2019-01-25T20:47:16.630Z,94.50
2019-01-25T21:17:20.180Z,94.60
2019-01-25T21:47:24.219Z,95.00
2019-01-25T22:17:28.107Z,95.80
2019-01-25T22:47:31.897Z,95.70
2019-01-25T23:17:35.782Z,96.00
2019-01-25T23:47:39.252Z,96.10
